Time;durP1;ratioP1;P1;durP2;ratioP2;P2;SDS_P1;SDS_P2;PMS_P1;PMS_P2;Temp;Humidity;BMP_temperature;BMP_pressure;BME280_temperature;BME280_humidity;BME280_pressure;Samples;Min_cycle;Max_cycle;Signal;HPM_P1;HPM_P2
2024/03/27 00:01:19;;;;;;;6.27;4.30;;;8.10;99.90;;;;;;493935;241;28507;-74
2024/03/27 00:03:20;;;;;;;5.30;4.00;;;8.10;99.90;;;;;;493911;241;28367;-73
2024/03/27 00:05:22;;;;;;;5.13;4.50;;;8.00;99.90;;;;;;493980;241;28531;-73
2024/03/27 00:07:23;;;;;;;7.07;4.60;;;8.00;99.90;;;;;;493975;241;28089;-74
2024/03/27 00:09:24;;;;;;;6.57;4.50;;;7.90;99.90;;;;;;493947;241;28065;-73
2024/03/27 00:11:27;;;;;;;6.97;4.50;;;7.80;99.90;;;;;;493904;237;28005;-74
2024/03/27 00:13:27;;;;;;;6.83;4.60;;;7.70;99.90;;;;;;493785;241;28155;-73
2024/03/27 00:15:28;;;;;;;5.30;4.40;;;7.70;99.90;;;;;;494005;241;27939;-73
2024/03/27 00:17:29;;;;;;;6.37;4.50;;;7.50;99.90;;;;;;493952;241;28006;-74
2024/03/27 00:19:30;;;;;;;7.00;4.00;;;7.50;99.90;;;;;;493950;241;27949;-73
2024/03/27 00:21:32;;;;;;;6.73;4.30;;;7.60;99.90;;;;;;493915;241;28053;-73
2024/03/27 00:23:33;;;;;;;6.23;4.40;;;7.70;99.90;;;;;;493984;241;28259;-75
2024/03/27 00:25:34;;;;;;;7.00;4.03;;;7.70;99.90;;;;;;493915;241;27741;-73
2024/03/27 00:27:35;;;;;;;5.70;3.57;;;7.70;99.90;;;;;;493942;241;27892;-73
2024/03/27 00:29:37;;;;;;;4.20;3.70;;;7.70;99.90;;;;;;493944;241;27582;-73
2024/03/27 00:31:38;;;;;;;6.30;3.70;;;7.70;99.90;;;;;;493909;237;28009;-73
2024/03/27 00:33:39;;;;;;;4.27;3.87;;;7.60;99.90;;;;;;493987;241;28005;-75
2024/03/27 00:35:40;;;;;;;5.73;3.57;;;7.70;99.90;;;;;;493965;241;27588;-73
2024/03/27 00:37:42;;;;;;;5.40;4.17;;;7.70;99.90;;;;;;493949;241;27608;-73
2024/03/27 00:39:43;;;;;;;7.30;4.27;;;7.70;99.90;;;;;;493902;241;27728;-73
2024/03/27 00:41:44;;;;;;;4.10;3.40;;;7.60;99.90;;;;;;493978;241;27984;-73
2024/03/27 00:43:45;;;;;;;5.40;3.63;;;7.70;99.90;;;;;;493969;241;28018;-74
2024/03/27 00:45:47;;;;;;;4.20;3.70;;;7.70;99.90;;;;;;493916;241;28076;-73
2024/03/27 00:47:48;;;;;;;5.67;3.87;;;7.70;99.90;;;;;;493907;241;28101;-73
2024/03/27 00:49:49;;;;;;;3.83;3.43;;;7.70;99.90;;;;;;493985;241;27911;-73
2024/03/27 00:51:50;;;;;;;3.87;3.53;;;7.80;99.90;;;;;;493937;241;27910;-73
2024/03/27 00:53:52;;;;;;;5.80;3.77;;;7.80;99.90;;;;;;493946;237;28133;-74
2024/03/27 00:55:53;;;;;;;3.93;3.10;;;7.80;99.90;;;;;;493917;241;27560;-73
2024/03/27 00:57:54;;;;;;;6.67;3.23;;;7.70;99.90;;;;;;493931;241;27865;-73
2024/03/27 00:59:58;;;;;;;5.40;3.23;;;7.70;99.90;;;;;;493986;241;27642;-74
2024/03/27 01:01:57;;;;;;;4.50;3.50;;;7.70;99.90;;;;;;493755;241;28130;-73
2024/03/27 01:03:58;;;;;;;3.53;3.20;;;7.70;99.90;;;;;;493946;241;28574;-73
2024/03/27 01:05:59;;;;;;;5.37;3.40;;;7.60;99.90;;;;;;493918;241;28368;-73
2024/03/27 01:08:00;;;;;;;4.33;3.00;;;7.70;99.90;;;;;;493960;241;28373;-73
2024/03/27 01:10:02;;;;;;;6.60;3.50;;;7.70;99.90;;;;;;493961;241;28444;-74
2024/03/27 01:12:03;;;;;;;4.93;3.30;;;7.70;99.90;;;;;;493974;241;27917;-73
2024/03/27 01:14:04;;;;;;;4.03;3.60;;;7.80;99.90;;;;;;493913;241;28401;-74
2024/03/27 01:16:05;;;;;;;6.00;3.90;;;7.80;99.90;;;;;;493933;241;28083;-73
2024/03/27 01:18:07;;;;;;;11.30;4.30;;;7.80;99.90;;;;;;493954;241;28039;-73
2024/03/27 01:20:09;;;;;;;4.13;3.57;;;7.80;99.90;;;;;;493946;241;28059;-74
2024/03/27 01:22:09;;;;;;;5.27;3.80;;;7.70;99.90;;;;;;493887;241;28057;-73
2024/03/27 01:24:10;;;;;;;4.43;3.80;;;7.70;99.90;;;;;;493894;241;28089;-73
2024/03/27 01:26:12;;;;;;;9.63;4.10;;;7.70;99.90;;;;;;493949;241;27869;-73
2024/03/27 01:28:13;;;;;;;3.50;3.20;;;7.60;99.90;;;;;;493972;241;28025;-73
2024/03/27 01:30:14;;;;;;;4.33;3.30;;;7.60;99.90;;;;;;493913;241;28073;-73
2024/03/27 01:32:15;;;;;;;4.80;3.47;;;7.50;99.90;;;;;;493922;241;28059;-73
2024/03/27 01:34:17;;;;;;;5.00;3.40;;;7.50;99.90;;;;;;493895;241;27999;-73
2024/03/27 01:36:18;;;;;;;5.57;3.93;;;7.40;99.90;;;;;;493979;237;27981;-75
2024/03/27 01:38:19;;;;;;;6.87;3.80;;;7.30;99.90;;;;;;493779;241;27576;-73
2024/03/27 01:40:20;;;;;;;5.70;3.47;;;7.30;99.90;;;;;;493924;241;28022;-73
2024/03/27 01:42:22;;;;;;;4.73;3.83;;;7.30;99.90;;;;;;493898;241;27977;-73
2024/03/27 01:44:23;;;;;;;6.50;4.13;;;7.20;99.90;;;;;;493982;241;27814;-73
2024/03/27 01:46:25;;;;;;;5.03;3.50;;;7.20;99.90;;;;;;493935;241;27986;-74
2024/03/27 01:48:25;;;;;;;4.80;3.43;;;7.20;99.90;;;;;;493873;241;27982;-73
2024/03/27 01:50:28;;;;;;;3.67;3.37;;;7.10;99.90;;;;;;493924;241;28099;-73
2024/03/27 01:52:28;;;;;;;5.83;4.00;;;7.10;99.90;;;;;;493795;241;28074;-73
2024/03/27 01:54:29;;;;;;;5.93;4.10;;;7.10;99.90;;;;;;493959;241;27521;-70
2024/03/27 01:56:32;;;;;;;6.33;4.30;;;7.10;99.90;;;;;;493963;241;28063;-74
2024/03/27 01:58:32;;;;;;;4.10;3.70;;;7.10;99.90;;;;;;493810;241;28468;-70
2024/03/27 02:00:34;;;;;;;5.93;4.20;;;7.00;99.90;;;;;;493934;241;28380;-73
2024/03/27 02:02:35;;;;;;;11.37;4.70;;;6.90;99.90;;;;;;493959;241;28527;-74
2024/03/27 02:04:35;;;;;;;6.00;4.50;;;6.80;99.90;;;;;;493940;241;28423;-71
2024/03/27 02:06:37;;;;;;;6.93;4.60;;;6.70;99.90;;;;;;493924;237;27526;-71
2024/03/27 02:08:38;;;;;;;7.10;4.47;;;6.70;99.90;;;;;;493891;241;28907;-71
2024/03/27 02:10:39;;;;;;;5.87;4.50;;;6.60;99.90;;;;;;493696;241;27811;-71
2024/03/27 02:12:40;;;;;;;10.30;4.83;;;6.60;99.90;;;;;;494009;241;27887;-74
2024/03/27 02:14:42;;;;;;;4.83;4.20;;;6.60;99.90;;;;;;493948;237;28145;-73
2024/03/27 02:16:43;;;;;;;11.32;4.75;;;6.70;99.90;;;;;;493911;241;28942;-71
2024/03/27 02:21:22;;;;;;;6.83;4.70;;;6.70;99.90;;;;;;493872;241;27869;-73
2024/03/27 02:23:23;;;;;;;8.43;4.23;;;6.60;99.90;;;;;;493914;241;28846;-73
2024/03/27 02:25:25;;;;;;;4.60;4.00;;;6.60;99.90;;;;;;493975;241;28007;-75
2024/03/27 02:27:26;;;;;;;8.00;4.30;;;6.60;99.90;;;;;;493938;241;27733;-71
2024/03/27 02:29:27;;;;;;;5.07;4.13;;;6.60;99.90;;;;;;493933;241;27703;-71
2024/03/27 02:31:28;;;;;;;9.70;4.73;;;6.60;99.90;;;;;;493914;241;27926;-73
2024/03/27 02:33:30;;;;;;;7.70;4.07;;;6.60;99.90;;;;;;493965;241;28052;-74
2024/03/27 02:35:31;;;;;;;4.60;4.13;;;6.60;99.90;;;;;;493950;241;27610;-75
2024/03/27 02:37:32;;;;;;;4.57;4.00;;;6.60;99.90;;;;;;493908;241;27926;-74
2024/03/27 02:39:33;;;;;;;4.53;4.10;;;6.60;99.90;;;;;;493905;241;28093;-71
2024/03/27 02:41:35;;;;;;;6.70;4.20;;;6.60;99.90;;;;;;493989;241;27748;-72
2024/03/27 02:43:36;;;;;;;6.77;4.20;;;6.70;99.90;;;;;;493963;241;27636;-72
2024/03/27 02:45:37;;;;;;;4.57;4.18;;;6.80;99.90;;;;;;493938;241;28012;-72
2024/03/27 02:47:38;;;;;;;5.17;3.83;;;6.90;99.90;;;;;;493894;241;27934;-72
2024/03/27 02:49:40;;;;;;;3.80;3.33;;;6.90;99.90;;;;;;493915;241;28294;-72
2024/03/27 02:51:41;;;;;;;4.57;3.70;;;7.00;99.90;;;;;;493967;241;28611;-75
2024/03/27 02:53:42;;;;;;;6.40;3.57;;;6.90;99.90;;;;;;493934;241;28289;-73
2024/03/27 02:55:43;;;;;;;3.97;3.00;;;6.90;99.90;;;;;;493922;241;27877;-74
2024/03/27 02:57:45;;;;;;;3.30;3.10;;;6.90;99.90;;;;;;493899;241;28048;-71
2024/03/27 02:59:46;;;;;;;5.80;3.77;;;6.90;99.90;;;;;;493966;241;28022;-74
2024/03/27 03:01:47;;;;;;;6.00;4.27;;;6.90;99.90;;;;;;493903;241;28018;-72
2024/03/27 03:03:48;;;;;;;8.60;4.20;;;6.90;99.90;;;;;;493946;241;27946;-74
2024/03/27 03:05:50;;;;;;;11.63;4.00;;;6.80;99.90;;;;;;493931;241;28009;-71
2024/03/27 03:07:51;;;;;;;5.83;4.00;;;6.70;99.90;;;;;;493880;241;28340;-74
2024/03/27 03:09:52;;;;;;;5.23;3.30;;;6.60;99.90;;;;;;493972;241;27924;-73
2024/03/27 03:11:53;;;;;;;7.97;4.60;;;6.50;99.90;;;;;;493980;241;27949;-71
2024/03/27 03:13:55;;;;;;;6.50;3.90;;;6.50;99.90;;;;;;493994;241;27642;-74
2024/03/27 03:15:56;;;;;;;5.20;4.00;;;6.40;99.90;;;;;;493959;241;27950;-71
2024/03/27 03:17:57;;;;;;;5.67;4.30;;;6.40;99.90;;;;;;493926;237;28047;-71
2024/03/27 03:19:58;;;;;;;4.50;3.53;;;6.40;99.90;;;;;;493997;241;27919;-72
2024/03/27 03:22:00;;;;;;;4.70;3.73;;;6.40;99.90;;;;;;493987;241;27553;-72
2024/03/27 03:24:01;;;;;;;4.63;3.40;;;6.40;99.90;;;;;;493993;241;28782;-73
2024/03/27 03:26:02;;;;;;;3.40;3.10;;;6.50;99.90;;;;;;493977;241;28364;-72
2024/03/27 03:28:03;;;;;;;3.60;3.20;;;6.40;99.90;;;;;;493997;241;28782;-75
2024/03/27 03:30:05;;;;;;;5.03;3.90;;;6.40;99.90;;;;;;493995;241;28285;-73
2024/03/27 03:32:06;;;;;;;8.70;4.30;;;6.30;99.90;;;;;;493895;241;29143;-73
2024/03/27 03:34:07;;;;;;;5.17;3.70;;;6.30;99.90;;;;;;493884;241;28025;-73
2024/03/27 03:36:08;;;;;;;5.47;3.60;;;6.30;99.90;;;;;;493835;241;27623;-74
2024/03/27 03:38:10;;;;;;;4.75;3.65;;;6.30;99.90;;;;;;493937;241;28973;-72
2024/03/27 03:40:11;;;;;;;6.87;3.67;;;6.30;99.90;;;;;;493929;241;27455;-72
2024/03/27 03:42:12;;;;;;;3.53;3.22;;;6.30;99.90;;;;;;493896;241;28084;-74
2024/03/27 03:44:13;;;;;;;5.43;3.33;;;6.30;99.90;;;;;;493876;241;27561;-71
2024/03/27 03:46:15;;;;;;;3.47;3.17;;;6.20;99.90;;;;;;493956;241;28045;-72
2024/03/27 03:48:16;;;;;;;4.60;3.22;;;6.00;99.90;;;;;;493936;241;28954;-74
2024/03/27 03:50:17;;;;;;;7.50;3.50;;;6.00;99.90;;;;;;493948;241;27951;-71
2024/03/27 03:52:18;;;;;;;4.13;3.37;;;6.00;99.90;;;;;;493926;237;29352;-74
2024/03/27 03:54:20;;;;;;;3.93;3.40;;;5.90;99.90;;;;;;493972;241;28612;-74
2024/03/27 03:56:21;;;;;;;5.43;3.60;;;5.90;99.90;;;;;;494017;241;28383;-74
2024/03/27 03:58:22;;;;;;;3.40;3.00;;;5.80;99.90;;;;;;493961;241;28662;-72
2024/03/27 04:00:24;;;;;;;5.35;3.70;;;5.90;99.90;;;;;;493965;241;28713;-74
2024/03/27 04:02:25;;;;;;;4.07;3.63;;;6.00;99.90;;;;;;493912;241;27593;-73
2024/03/27 04:04:26;;;;;;;3.78;3.25;;;6.00;99.90;;;;;;494005;241;29324;-75
2024/03/27 04:06:27;;;;;;;5.70;3.60;;;6.00;99.90;;;;;;494001;241;27474;-73
2024/03/27 04:08:28;;;;;;;6.07;4.00;;;6.10;99.90;;;;;;493955;241;27939;-74
2024/03/27 04:10:30;;;;;;;6.53;4.00;;;6.10;99.90;;;;;;493968;241;27916;-74
2024/03/27 04:12:31;;;;;;;5.83;3.90;;;6.10;99.90;;;;;;493996;241;28364;-74
2024/03/27 04:14:32;;;;;;;5.60;4.17;;;6.00;99.90;;;;;;493961;237;28853;-72
2024/03/27 04:16:34;;;;;;;6.97;4.70;;;5.90;99.90;;;;;;493958;241;28262;-71
2024/03/27 04:18:35;;;;;;;8.50;4.05;;;6.00;99.90;;;;;;493914;241;27540;-72
2024/03/27 04:20:36;;;;;;;4.75;3.65;;;6.10;99.90;;;;;;493927;241;27529;-71
2024/03/27 04:22:37;;;;;;;5.00;4.10;;;6.20;99.90;;;;;;493989;237;27477;-71
2024/03/27 04:24:38;;;;;;;6.60;3.80;;;6.30;99.90;;;;;;493968;241;29305;-74
2024/03/27 04:26:40;;;;;;;5.90;4.10;;;6.40;99.90;;;;;;493915;241;29369;-71
2024/03/27 04:28:41;;;;;;;3.33;3.03;;;6.50;99.90;;;;;;493905;241;28470;-73
2024/03/27 04:30:42;;;;;;;4.37;3.30;;;6.50;99.90;;;;;;494018;241;28640;-75
2024/03/27 04:32:43;;;;;;;3.63;3.33;;;6.60;99.90;;;;;;494003;241;27995;-74
2024/03/27 04:34:45;;;;;;;4.43;3.40;;;6.60;99.90;;;;;;493941;241;28106;-72
2024/03/27 04:36:46;;;;;;;4.73;3.80;;;6.60;99.90;;;;;;493938;241;27826;-72
2024/03/27 04:38:48;;;;;;;4.03;3.60;;;6.60;99.90;;;;;;493930;241;27836;-72
2024/03/27 04:40:48;;;;;;;4.33;3.40;;;6.50;99.90;;;;;;493927;241;28232;-73
2024/03/27 04:42:50;;;;;;;4.43;3.90;;;6.50;99.90;;;;;;493952;241;27941;-72
2024/03/27 04:44:51;;;;;;;4.73;3.80;;;6.50;99.90;;;;;;493900;241;28091;-74
2024/03/27 04:46:52;;;;;;;4.20;3.20;;;6.60;99.90;;;;;;493868;241;28029;-74
2024/03/27 04:48:53;;;;;;;3.50;3.13;;;6.70;99.90;;;;;;493931;241;28282;-74
2024/03/27 04:50:55;;;;;;;3.90;3.50;;;6.80;99.90;;;;;;493958;237;28050;-73
2024/03/27 04:52:56;;;;;;;4.70;3.10;;;6.80;99.90;;;;;;493916;241;27948;-73
2024/03/27 04:54:57;;;;;;;4.17;3.40;;;6.90;99.90;;;;;;493904;241;28122;-73
2024/03/27 04:56:58;;;;;;;3.97;3.40;;;7.00;99.90;;;;;;493817;241;27973;-73
2024/03/27 04:59:00;;;;;;;3.57;3.03;;;7.10;99.90;;;;;;493971;241;28032;-73
2024/03/27 05:01:01;;;;;;;4.60;3.50;;;7.10;99.90;;;;;;493949;237;28162;-71
2024/03/27 05:03:02;;;;;;;3.90;2.90;;;7.10;99.90;;;;;;493936;241;28414;-71
2024/03/27 05:05:04;;;;;;;4.10;3.00;;;7.20;99.90;;;;;;493867;241;28617;-71
2024/03/27 05:07:05;;;;;;;5.57;3.73;;;7.20;99.90;;;;;;493924;241;28352;-72
2024/03/27 05:09:09;;;;;;;4.37;2.87;;;7.30;99.90;;;;;;493945;241;28108;-71
2024/03/27 05:11:10;;;;;;;4.33;3.93;;;7.20;99.90;;;;;;493940;237;28058;-71
2024/03/27 05:13:11;;;;;;;5.10;3.30;;;7.30;99.90;;;;;;493947;241;27843;-74
2024/03/27 05:15:13;;;;;;;3.40;3.10;;;7.30;99.90;;;;;;493880;241;27822;-73
2024/03/27 05:17:14;;;;;;;5.07;3.60;;;7.30;99.90;;;;;;493821;241;28124;-74
2024/03/27 05:19:15;;;;;;;4.80;3.30;;;7.40;99.90;;;;;;493975;241;27986;-75
2024/03/27 05:21:17;;;;;;;4.47;3.37;;;7.40;99.90;;;;;;493967;237;28221;-71
2024/03/27 05:23:17;;;;;;;4.00;3.00;;;7.40;99.90;;;;;;493859;241;28503;-71
2024/03/27 05:25:19;;;;;;;4.50;3.13;;;7.50;99.90;;;;;;493908;237;28511;-73
2024/03/27 05:27:20;;;;;;;7.80;3.40;;;7.50;99.90;;;;;;493932;241;28544;-74
2024/03/27 05:29:21;;;;;;;4.40;3.47;;;7.50;99.90;;;;;;493971;241;28550;-74
2024/03/27 05:31:22;;;;;;;3.60;3.30;;;7.50;99.90;;;;;;493937;241;28253;-73
2024/03/27 05:33:24;;;;;;;3.47;3.17;;;7.50;99.90;;;;;;493893;241;28452;-74
2024/03/27 05:35:25;;;;;;;3.60;2.90;;;7.60;99.90;;;;;;493905;241;28015;-74
2024/03/27 05:37:26;;;;;;;4.20;3.33;;;7.60;99.90;;;;;;493977;241;27977;-73
2024/03/27 05:39:28;;;;;;;4.30;3.73;;;7.70;99.90;;;;;;493953;241;28161;-74
2024/03/27 05:41:29;;;;;;;4.13;3.27;;;7.70;99.90;;;;;;493936;241;27805;-73
2024/03/27 05:43:30;;;;;;;4.10;3.37;;;7.80;99.90;;;;;;493935;237;27638;-74
2024/03/27 05:45:31;;;;;;;5.67;3.60;;;7.80;99.90;;;;;;493945;241;27870;-73
2024/03/27 05:47:32;;;;;;;3.60;3.30;;;7.80;99.90;;;;;;493939;241;27828;-73
2024/03/27 05:49:34;;;;;;;6.20;3.70;;;7.70;99.90;;;;;;493939;241;28198;-73
2024/03/27 05:51:35;;;;;;;5.87;3.00;;;7.50;99.90;;;;;;493908;241;27888;-73
2024/03/27 05:53:36;;;;;;;3.53;2.90;;;7.40;99.90;;;;;;493852;241;28089;-74
2024/03/27 05:55:38;;;;;;;3.90;3.13;;;7.40;99.90;;;;;;493967;241;28366;-75
2024/03/27 05:57:39;;;;;;;9.10;3.73;;;7.40;99.90;;;;;;493805;237;27938;-73
2024/03/27 05:59:40;;;;;;;4.30;3.07;;;7.50;99.90;;;;;;493933;241;28085;-73
2024/03/27 06:01:41;;;;;;;5.07;2.97;;;7.60;99.90;;;;;;493892;241;27726;-73
2024/03/27 06:03:42;;;;;;;3.60;3.30;;;7.70;99.90;;;;;;493904;237;28577;-74
2024/03/27 06:05:44;;;;;;;6.23;3.93;;;7.80;99.90;;;;;;493961;241;28357;-74
2024/03/27 06:07:45;;;;;;;4.90;3.60;;;7.80;99.90;;;;;;493954;241;28526;-73
2024/03/27 06:09:46;;;;;;;5.07;3.50;;;7.90;99.90;;;;;;493915;241;28682;-72
2024/03/27 06:11:47;;;;;;;5.07;3.40;;;8.00;99.90;;;;;;493903;241;28601;-73
2024/03/27 06:13:49;;;;;;;4.40;3.33;;;8.00;99.90;;;;;;493962;241;27954;-73
2024/03/27 06:15:50;;;;;;;4.83;3.57;;;8.10;99.90;;;;;;493943;237;28118;-74
2024/03/27 06:17:51;;;;;;;5.10;3.50;;;8.10;99.90;;;;;;493904;241;27982;-73
2024/03/27 06:19:52;;;;;;;4.50;3.43;;;8.00;99.90;;;;;;493916;241;28089;-73
2024/03/27 06:21:54;;;;;;;5.43;3.43;;;7.90;99.90;;;;;;493927;241;28054;-73
2024/03/27 06:23:55;;;;;;;4.57;3.40;;;7.90;99.90;;;;;;493960;241;28057;-74
2024/03/27 06:25:56;;;;;;;3.27;2.97;;;7.80;99.90;;;;;;493968;241;28469;-74
2024/03/27 06:27:57;;;;;;;3.50;3.20;;;7.70;99.90;;;;;;493920;241;27964;-73
2024/03/27 06:29:59;;;;;;;7.43;3.50;;;7.50;99.90;;;;;;493896;241;28020;-73
2024/03/27 06:32:00;;;;;;;4.10;2.93;;;7.40;99.90;;;;;;493974;241;28312;-75
2024/03/27 06:34:02;;;;;;;4.43;3.37;;;7.40;99.90;;;;;;493961;241;27967;-73
2024/03/27 06:36:02;;;;;;;4.30;3.50;;;7.40;99.90;;;;;;493844;241;28067;-75
2024/03/27 06:38:04;;;;;;;4.70;4.00;;;7.40;99.90;;;;;;493883;241;27896;-73
2024/03/27 06:40:05;;;;;;;5.07;3.43;;;7.50;99.90;;;;;;493844;241;27884;-73
2024/03/27 06:42:06;;;;;;;3.70;3.40;;;7.50;99.90;;;;;;493564;241;28505;-76
2024/03/27 06:44:08;;;;;;;7.20;3.70;;;7.50;99.90;;;;;;493964;241;28428;-73
2024/03/27 06:46:09;;;;;;;3.93;3.60;;;7.40;99.90;;;;;;493830;241;28334;-74
2024/03/27 06:48:10;;;;;;;3.70;3.40;;;7.40;99.90;;;;;;493890;241;28422;-73
2024/03/27 06:50:11;;;;;;;6.30;3.97;;;7.40;99.90;;;;;;493946;237;28406;-73
2024/03/27 06:52:13;;;;;;;5.57;3.60;;;7.40;99.90;;;;;;493974;241;28528;-75
2024/03/27 06:54:14;;;;;;;6.53;2.97;;;7.40;99.90;;;;;;493950;241;27797;-73
2024/03/27 06:56:15;;;;;;;3.60;3.30;;;7.40;99.90;;;;;;493936;241;27994;-73
2024/03/27 06:58:16;;;;;;;5.60;3.40;;;7.50;99.90;;;;;;493885;241;27969;-73
2024/03/27 07:00:17;;;;;;;4.60;3.40;;;7.60;99.90;;;;;;493986;241;27875;-73
2024/03/27 07:02:19;;;;;;;3.23;3.00;;;7.70;99.90;;;;;;493929;241;28067;-74
2024/03/27 07:04:20;;;;;;;4.80;3.30;;;7.90;99.90;;;;;;493919;241;28009;-73
2024/03/27 07:06:21;;;;;;;3.73;3.10;;;7.90;99.90;;;;;;493893;241;27665;-74
2024/03/27 07:08:22;;;;;;;4.00;3.40;;;8.00;99.90;;;;;;493970;241;28348;-73
2024/03/27 07:10:24;;;;;;;3.50;3.20;;;8.00;99.90;;;;;;493944;241;27959;-73
2024/03/27 07:12:25;;;;;;;4.20;3.40;;;8.10;99.90;;;;;;493936;241;27958;-73
2024/03/27 07:14:26;;;;;;;4.87;3.87;;;8.10;99.90;;;;;;493920;241;27926;-73
2024/03/27 07:16:27;;;;;;;7.20;3.20;;;8.10;99.90;;;;;;493879;241;28130;-73
2024/03/27 07:18:29;;;;;;;4.03;3.63;;;8.10;99.90;;;;;;493956;241;27991;-74
2024/03/27 07:20:30;;;;;;;4.20;3.70;;;8.20;99.90;;;;;;493937;241;27959;-73
2024/03/27 07:22:31;;;;;;;4.37;3.63;;;8.10;99.90;;;;;;493931;241;28089;-73
2024/03/27 07:24:33;;;;;;;7.43;4.17;;;8.10;99.90;;;;;;493892;241;28038;-73
2024/03/27 07:26:34;;;;;;;6.47;4.20;;;8.10;99.90;;;;;;493973;241;28035;-74
2024/03/27 07:28:35;;;;;;;7.73;4.30;;;8.10;99.90;;;;;;493954;237;27898;-74
2024/03/27 07:30:36;;;;;;;4.67;4.10;;;8.10;99.90;;;;;;493935;237;28071;-73
2024/03/27 07:32:37;;;;;;;5.27;4.33;;;8.10;99.90;;;;;;493985;241;27954;-73
2024/03/27 07:34:39;;;;;;;5.23;4.40;;;8.10;99.90;;;;;;493998;241;28136;-76
2024/03/27 07:36:40;;;;;;;6.57;5.20;;;8.10;99.90;;;;;;494044;241;28049;-73
2024/03/27 07:38:41;;;;;;;7.23;5.00;;;8.20;99.90;;;;;;494024;241;28058;-73
2024/03/27 07:40:42;;;;;;;6.03;5.43;;;8.20;99.90;;;;;;494003;241;28405;-73
2024/03/27 07:42:44;;;;;;;6.97;5.10;;;8.20;99.90;;;;;;493966;241;28174;-74
2024/03/27 07:44:45;;;;;;;6.50;5.37;;;8.20;99.90;;;;;;494021;241;28698;-74
2024/03/27 07:46:46;;;;;;;9.10;5.33;;;8.30;99.90;;;;;;493998;241;28413;-73
2024/03/27 07:48:49;;;;;;;6.60;5.10;;;8.30;99.90;;;;;;494021;241;28383;-73
2024/03/27 07:50:49;;;;;;;7.00;5.60;;;8.30;99.90;;;;;;493877;241;28100;-73
2024/03/27 07:52:50;;;;;;;5.90;5.23;;;8.40;99.90;;;;;;494011;241;27630;-74
2024/03/27 07:54:52;;;;;;;8.47;5.60;;;8.40;99.90;;;;;;494040;241;28007;-76
2024/03/27 07:56:52;;;;;;;6.00;4.97;;;8.50;99.90;;;;;;493982;237;27582;-73
2024/03/27 07:58:54;;;;;;;8.03;4.90;;;8.60;99.90;;;;;;493991;241;28147;-73
2024/03/27 08:00:55;;;;;;;7.27;5.17;;;8.70;99.90;;;;;;493966;241;27684;-72
2024/03/27 08:02:56;;;;;;;5.80;5.20;;;8.70;99.90;;;;;;493995;241;27972;-72
2024/03/27 08:05:00;;;;;;;7.33;5.13;;;8.70;99.90;;;;;;494017;241;27638;-74
2024/03/27 08:07:01;;;;;;;7.10;4.83;;;8.70;99.90;;;;;;493980;241;28062;-74
2024/03/27 08:09:03;;;;;;;5.13;4.63;;;8.80;99.90;;;;;;493986;241;28056;-73
2024/03/27 08:11:04;;;;;;;6.93;5.27;;;8.80;99.90;;;;;;493969;241;27969;-74
2024/03/27 08:13:05;;;;;;;5.97;5.03;;;8.80;99.90;;;;;;494007;241;27741;-76
2024/03/27 08:15:09;;;;;;;7.03;5.00;;;8.80;99.90;;;;;;493979;241;27920;-73
2024/03/27 08:17:08;;;;;;;7.93;5.70;;;9.00;99.90;;;;;;493760;241;27997;-74
2024/03/27 08:19:09;;;;;;;5.10;4.47;;;9.00;99.90;;;;;;493933;241;27834;-73
2024/03/27 08:21:10;;;;;;;7.50;5.30;;;9.00;99.90;;;;;;493995;241;28069;-73
2024/03/27 08:23:11;;;;;;;5.70;5.10;;;9.00;99.90;;;;;;493989;237;28058;-74
2024/03/27 08:25:13;;;;;;;6.97;5.10;;;8.90;99.90;;;;;;493996;241;27906;-73
2024/03/27 08:27:14;;;;;;;8.47;5.93;;;8.90;99.90;;;;;;493962;241;27704;-73
2024/03/27 08:29:15;;;;;;;10.83;6.50;;;8.90;99.90;;;;;;493982;241;27924;-73
2024/03/27 08:31:16;;;;;;;11.40;6.80;;;9.00;99.90;;;;;;493966;241;28337;-73
2024/03/27 08:33:18;;;;;;;8.73;6.30;;;9.00;99.90;;;;;;493975;241;28854;-74
2024/03/27 08:35:19;;;;;;;11.03;5.60;;;9.00;99.90;;;;;;493978;241;28379;-73
2024/03/27 08:37:20;;;;;;;13.10;6.33;;;9.00;99.90;;;;;;493935;241;28502;-73
2024/03/27 08:39:21;;;;;;;7.60;5.50;;;9.00;99.90;;;;;;494010;241;28059;-75
2024/03/27 08:41:23;;;;;;;11.50;5.17;;;8.90;99.90;;;;;;493999;241;27976;-73
2024/03/27 08:43:24;;;;;;;6.20;4.70;;;8.90;99.90;;;;;;493982;241;27852;-74
2024/03/27 08:45:25;;;;;;;5.60;4.53;;;8.90;99.90;;;;;;493958;241;27936;-73
2024/03/27 08:47:28;;;;;;;6.53;3.90;;;8.90;99.90;;;;;;493955;241;27895;-73
2024/03/27 08:49:28;;;;;;;6.67;4.40;;;9.00;99.90;;;;;;493954;237;28322;-76
2024/03/27 08:51:29;;;;;;;5.37;3.70;;;9.00;99.90;;;;;;493995;241;28157;-73
2024/03/27 08:53:30;;;;;;;5.77;4.03;;;9.00;99.90;;;;;;493959;241;27995;-74
2024/03/27 08:55:32;;;;;;;4.43;3.50;;;9.10;99.90;;;;;;494001;241;27651;-73
2024/03/27 08:57:33;;;;;;;8.50;4.03;;;9.00;99.90;;;;;;494003;241;27909;-73
2024/03/27 08:59:35;;;;;;;6.90;4.67;;;9.00;99.90;;;;;;494019;241;28022;-74
2024/03/27 09:01:35;;;;;;;5.10;4.40;;;9.00;99.90;;;;;;493928;241;27914;-73
2024/03/27 09:03:36;;;;;;;9.13;4.40;;;9.00;99.90;;;;;;493973;241;27572;-74
2024/03/27 09:05:38;;;;;;;7.10;5.40;;;8.90;99.90;;;;;;494010;241;28597;-73
2024/03/27 09:07:39;;;;;;;4.67;4.23;;;8.80;99.90;;;;;;494030;241;28248;-73
2024/03/27 09:09:40;;;;;;;5.07;4.43;;;8.80;99.90;;;;;;494003;241;28082;-74
2024/03/27 09:11:41;;;;;;;4.37;3.97;;;8.80;99.90;;;;;;493999;241;28258;-73
2024/03/27 09:13:43;;;;;;;4.13;3.73;;;8.80;99.90;;;;;;493982;241;28136;-74
2024/03/27 09:15:44;;;;;;;4.20;3.67;;;8.90;99.90;;;;;;494041;241;28006;-74
2024/03/27 09:17:45;;;;;;;5.50;3.80;;;8.90;99.90;;;;;;493996;241;27715;-73
2024/03/27 09:19:46;;;;;;;4.00;3.70;;;8.90;99.90;;;;;;493981;237;28020;-73
2024/03/27 09:21:48;;;;;;;4.90;3.53;;;8.90;99.90;;;;;;493969;241;28440;-73
2024/03/27 09:23:49;;;;;;;3.83;3.53;;;8.90;99.90;;;;;;493979;241;27987;-73
2024/03/27 09:25:50;;;;;;;4.47;3.37;;;8.90;99.90;;;;;;494009;241;27888;-74
2024/03/27 09:27:51;;;;;;;3.90;3.60;;;8.80;99.90;;;;;;493956;241;27711;-74
2024/03/27 09:29:53;;;;;;;3.50;3.23;;;8.80;99.90;;;;;;493936;241;28102;-73
2024/03/27 09:31:54;;;;;;;3.40;3.20;;;8.70;99.90;;;;;;493937;241;27935;-73
2024/03/27 09:33:55;;;;;;;4.90;3.80;;;8.80;99.90;;;;;;494007;241;28133;-73
2024/03/27 09:35:56;;;;;;;7.43;3.93;;;8.80;99.90;;;;;;493979;241;28085;-74
2024/03/27 09:37:58;;;;;;;5.40;4.80;;;8.90;99.90;;;;;;493978;241;27954;-72
2024/03/27 09:39:59;;;;;;;4.30;3.80;;;8.80;99.90;;;;;;493972;241;27617;-73
2024/03/27 09:42:00;;;;;;;5.20;4.50;;;8.70;99.90;;;;;;493997;241;28060;-73
2024/03/27 09:44:03;;;;;;;5.03;4.43;;;8.70;99.90;;;;;;494019;241;28474;-73
2024/03/27 09:46:03;;;;;;;4.47;4.07;;;8.60;99.90;;;;;;493931;241;28372;-73
2024/03/27 09:48:05;;;;;;;4.43;4.00;;;8.50;99.90;;;;;;494011;241;28396;-74
2024/03/27 09:50:05;;;;;;;3.20;3.00;;;8.50;99.90;;;;;;493907;241;28458;-73
2024/03/27 09:52:06;;;;;;;4.17;3.10;;;8.50;99.90;;;;;;494019;241;28446;-75
2024/03/27 09:54:08;;;;;;;4.07;3.63;;;8.60;99.90;;;;;;494013;241;28531;-73
2024/03/27 09:56:09;;;;;;;8.00;4.20;;;8.70;99.90;;;;;;493984;241;27982;-73
2024/03/27 09:58:10;;;;;;;5.77;3.70;;;8.70;99.90;;;;;;493935;241;27941;-73
2024/03/27 10:00:11;;;;;;;5.60;3.47;;;8.70;99.90;;;;;;493969;241;27861;-73
2024/03/27 10:02:13;;;;;;;4.33;3.93;;;8.70;99.90;;;;;;493985;241;27750;-75
2024/03/27 10:04:14;;;;;;;5.57;4.10;;;8.70;99.90;;;;;;493991;237;28044;-73
2024/03/27 10:06:15;;;;;;;7.00;5.17;;;8.60;99.90;;;;;;493979;241;28026;-74
2024/03/27 10:08:16;;;;;;;7.43;5.50;;;8.50;99.90;;;;;;493941;241;27835;-74
2024/03/27 10:10:18;;;;;;;6.20;4.90;;;8.50;99.90;;;;;;493983;237;27612;-74
2024/03/27 10:12:19;;;;;;;10.43;5.60;;;8.40;99.90;;;;;;493980;241;28117;-74
2024/03/27 10:14:20;;;;;;;7.53;6.53;;;8.60;99.90;;;;;;493974;241;27939;-73
2024/03/27 10:16:21;;;;;;;7.50;6.70;;;8.60;99.90;;;;;;493964;241;27851;-74
2024/03/27 10:18:24;;;;;;;7.50;6.80;;;8.60;99.90;;;;;;493962;241;27645;-73
2024/03/27 10:20:24;;;;;;;10.40;7.50;;;8.70;99.90;;;;;;493874;241;28000;-74
2024/03/27 10:22:26;;;;;;;15.90;12.00;;;8.60;99.90;;;;;;493975;241;28489;-74
2024/03/27 10:24:26;;;;;;;13.43;11.30;;;8.60;99.90;;;;;;493925;241;28443;-73
2024/03/27 10:26:28;;;;;;;11.83;10.03;;;8.50;99.90;;;;;;493933;241;28433;-73
2024/03/27 10:28:29;;;;;;;13.20;10.43;;;8.60;99.90;;;;;;493998;241;28123;-74
2024/03/27 10:30:30;;;;;;;12.00;10.80;;;8.50;99.90;;;;;;493964;241;27483;-74
2024/03/27 10:32:32;;;;;;;13.37;10.20;;;8.50;99.90;;;;;;493975;241;28207;-74
2024/03/27 10:34:33;;;;;;;11.70;10.20;;;8.60;99.90;;;;;;493945;241;27950;-73
2024/03/27 10:36:34;;;;;;;10.97;9.30;;;8.60;99.90;;;;;;493965;241;28001;-73
2024/03/27 10:38:35;;;;;;;10.60;9.50;;;8.70;99.90;;;;;;493980;241;28171;-74
2024/03/27 10:40:36;;;;;;;9.80;8.80;;;8.70;99.90;;;;;;493961;241;27579;-74